sensor_id;sensor_type;location;lat;lon;timestamp;temperature;humidity
22532;DHT22;11432;46.924;7.114;2023-02-26T00:00:12;3.50;1.00
22532;DHT22;11432;46.924;7.114;2023-02-26T00:02:40;3.50;1.00
22532;DHT22;11432;46.924;7.114;2023-02-26T00:05:07;3.50;1.00
22532;DHT22;11432;46.924;7.114;2023-02-26T00:07:33;3.40;1.00
22532;DHT22;11432;46.924;7.114;2023-02-26T00:09:59;3.40;1.00
22532;DHT22;11432;46.924;7.114;2023-02-26T00:12:29;3.40;1.00
22532;DHT22;11432;46.924;7.114;2023-02-26T00:14:55;3.30;1.00
22532;DHT22;11432;46.924;7.114;2023-02-26T00:19:52;3.20;1.00
22532;DHT22;11432;46.924;7.114;2023-02-26T00:22:19;3.10;1.00
22532;DHT22;11432;46.924;7.114;2023-02-26T00:24:45;3.10;1.00
22532;DHT22;11432;46.924;7.114;2023-02-26T00:27:11;3.10;1.00
22532;DHT22;11432;46.924;7.114;2023-02-26T00:29:37;3.00;1.00
22532;DHT22;11432;46.924;7.114;2023-02-26T00:32:03;3.00;1.00
22532;DHT22;11432;46.924;7.114;2023-02-26T00:34:29;2.90;1.00
22532;DHT22;11432;46.924;7.114;2023-02-26T00:42:06;2.90;1.00
22532;DHT22;11432;46.924;7.114;2023-02-26T00:44:32;2.90;1.00
22532;DHT22;11432;46.924;7.114;2023-02-26T00:50:19;2.80;1.00
22532;DHT22;11432;46.924;7.114;2023-02-26T00:55:38;2.70;1.00
22532;DHT22;11432;46.924;7.114;2023-02-26T00:58:04;2.70;1.00
22532;DHT22;11432;46.924;7.114;2023-02-26T01:00:30;2.80;1.00
22532;DHT22;11432;46.924;7.114;2023-02-26T01:02:56;2.70;1.00
22532;DHT22;11432;46.924;7.114;2023-02-26T01:05:22;2.70;1.00
22532;DHT22;11432;46.924;7.114;2023-02-26T01:10:39;2.70;1.00
22532;DHT22;11432;46.924;7.114;2023-02-26T01:13:05;2.80;1.00
22532;DHT22;11432;46.924;7.114;2023-02-26T01:15:31;2.70;1.00
22532;DHT22;11432;46.924;7.114;2023-02-26T01:18:12;2.70;1.00
22532;DHT22;11432;46.924;7.114;2023-02-26T01:20:52;2.70;1.00
22532;DHT22;11432;46.924;7.114;2023-02-26T01:23:24;2.60;1.00
22532;DHT22;11432;46.924;7.114;2023-02-26T01:25:51;2.60;1.00
22532;DHT22;11432;46.924;7.114;2023-02-26T01:28:19;2.60;1.00
22532;DHT22;11432;46.924;7.114;2023-02-26T01:30:46;2.50;1.00
22532;DHT22;11432;46.924;7.114;2023-02-26T01:33:45;2.50;1.00
22532;DHT22;11432;46.924;7.114;2023-02-26T01:36:19;2.40;1.00
22532;DHT22;11432;46.924;7.114;2023-02-26T01:41:29;2.40;1.00
22532;DHT22;11432;46.924;7.114;2023-02-26T01:47:03;2.30;1.00
22532;DHT22;11432;46.924;7.114;2023-02-26T01:49:31;2.20;99.90
22532;DHT22;11432;46.924;7.114;2023-02-26T01:54:52;2.20;1.00
22532;DHT22;11432;46.924;7.114;2023-02-26T01:57:19;2.20;1.00
22532;DHT22;11432;46.924;7.114;2023-02-26T01:59:48;2.20;1.00
22532;DHT22;11432;46.924;7.114;2023-02-26T02:02:20;2.10;99.90
22532;DHT22;11432;46.924;7.114;2023-02-26T02:04:48;2.10;1.00
22532;DHT22;11432;46.924;7.114;2023-02-26T02:07:14;2.10;1.00
22532;DHT22;11432;46.924;7.114;2023-02-26T02:09:41;2.10;1.00
22532;DHT22;11432;46.924;7.114;2023-02-26T02:20:51;2.10;1.00
22532;DHT22;11432;46.924;7.114;2023-02-26T02:23:44;2.10;1.00
22532;DHT22;11432;46.924;7.114;2023-02-26T02:31:54;2.00;1.00
22532;DHT22;11432;46.924;7.114;2023-02-26T02:37:36;2.00;1.00
22532;DHT22;11432;46.924;7.114;2023-02-26T02:40:21;2.00;1.00
22532;DHT22;11432;46.924;7.114;2023-02-26T02:48:09;2.00;1.00
22532;DHT22;11432;46.924;7.114;2023-02-26T02:50:41;1.90;1.00
22532;DHT22;11432;46.924;7.114;2023-02-26T02:53:22;1.90;1.00
22532;DHT22;11432;46.924;7.114;2023-02-26T02:56:06;1.90;1.00
22532;DHT22;11432;46.924;7.114;2023-02-26T02:58:38;1.80;1.00
22532;DHT22;11432;46.924;7.114;2023-02-26T03:01:08;1.80;1.00
22532;DHT22;11432;46.924;7.114;2023-02-26T03:06:10;1.80;1.00
22532;DHT22;11432;46.924;7.114;2023-02-26T03:08:38;1.70;1.00
22532;DHT22;11432;46.924;7.114;2023-02-26T03:11:06;1.70;1.00
22532;DHT22;11432;46.924;7.114;2023-02-26T03:13:32;1.70;1.00
22532;DHT22;11432;46.924;7.114;2023-02-26T03:21:12;1.70;1.00
22532;DHT22;11432;46.924;7.114;2023-02-26T03:23:45;1.70;1.00
22532;DHT22;11432;46.924;7.114;2023-02-26T03:26:23;1.80;1.00
22532;DHT22;11432;46.924;7.114;2023-02-26T03:28:58;1.80;1.00
22532;DHT22;11432;46.924;7.114;2023-02-26T03:31:34;1.70;1.00
22532;DHT22;11432;46.924;7.114;2023-02-26T03:34:38;1.70;1.00
22532;DHT22;11432;46.924;7.114;2023-02-26T03:39:51;1.70;1.00
22532;DHT22;11432;46.924;7.114;2023-02-26T03:42:28;1.60;1.00
22532;DHT22;11432;46.924;7.114;2023-02-26T03:45:34;1.60;1.00
22532;DHT22;11432;46.924;7.114;2023-02-26T03:47:53;1.60;1.00
22532;DHT22;11432;46.924;7.114;2023-02-26T03:50:25;1.60;1.00
22532;DHT22;11432;46.924;7.114;2023-02-26T03:52:53;1.50;1.00
22532;DHT22;11432;46.924;7.114;2023-02-26T03:57:55;1.50;1.00
22532;DHT22;11432;46.924;7.114;2023-02-26T04:00:21;1.50;1.00
22532;DHT22;11432;46.924;7.114;2023-02-26T04:02:59;1.50;1.00
22532;DHT22;11432;46.924;7.114;2023-02-26T04:05:30;1.50;1.00
22532;DHT22;11432;46.924;7.114;2023-02-26T04:07:57;1.40;1.00
22532;DHT22;11432;46.924;7.114;2023-02-26T04:10:35;1.40;1.00
22532;DHT22;11432;46.924;7.114;2023-02-26T04:13:02;1.40;1.00
22532;DHT22;11432;46.924;7.114;2023-02-26T04:15:28;1.30;1.00
22532;DHT22;11432;46.924;7.114;2023-02-26T04:17:54;1.30;1.00
22532;DHT22;11432;46.924;7.114;2023-02-26T04:20:19;1.30;1.00
22532;DHT22;11432;46.924;7.114;2023-02-26T04:22:45;1.30;1.00
22532;DHT22;11432;46.924;7.114;2023-02-26T04:25:10;1.20;1.00
22532;DHT22;11432;46.924;7.114;2023-02-26T04:27:36;1.10;1.00
22532;DHT22;11432;46.924;7.114;2023-02-26T04:30:02;1.00;1.00
22532;DHT22;11432;46.924;7.114;2023-02-26T04:32:28;1.00;1.00
22532;DHT22;11432;46.924;7.114;2023-02-26T04:34:53;0.90;1.00
22532;DHT22;11432;46.924;7.114;2023-02-26T04:37:19;0.80;1.00
22532;DHT22;11432;46.924;7.114;2023-02-26T04:39:44;0.70;1.00
22532;DHT22;11432;46.924;7.114;2023-02-26T04:42:10;0.70;1.00
22532;DHT22;11432;46.924;7.114;2023-02-26T04:44:36;0.60;1.00
22532;DHT22;11432;46.924;7.114;2023-02-26T04:47:01;0.60;1.00
22532;DHT22;11432;46.924;7.114;2023-02-26T04:49:27;0.50;1.00
22532;DHT22;11432;46.924;7.114;2023-02-26T04:51:52;0.50;1.00
22532;DHT22;11432;46.924;7.114;2023-02-26T04:54:18;0.50;1.00
22532;DHT22;11432;46.924;7.114;2023-02-26T04:56:44;0.40;1.00
22532;DHT22;11432;46.924;7.114;2023-02-26T04:59:09;0.40;1.00
22532;DHT22;11432;46.924;7.114;2023-02-26T05:01:35;0.30;1.00
22532;DHT22;11432;46.924;7.114;2023-02-26T05:04:01;0.30;1.00
22532;DHT22;11432;46.924;7.114;2023-02-26T05:06:26;0.30;1.00
22532;DHT22;11432;46.924;7.114;2023-02-26T05:08:52;0.30;1.00
22532;DHT22;11432;46.924;7.114;2023-02-26T05:11:18;0.20;1.00
22532;DHT22;11432;46.924;7.114;2023-02-26T05:13:43;0.20;1.00
22532;DHT22;11432;46.924;7.114;2023-02-26T05:16:09;0.10;1.00
22532;DHT22;11432;46.924;7.114;2023-02-26T05:18:35;0.10;1.00
22532;DHT22;11432;46.924;7.114;2023-02-26T05:21:00;0.10;1.00
22532;DHT22;11432;46.924;7.114;2023-02-26T05:23:26;0.00;1.00
22532;DHT22;11432;46.924;7.114;2023-02-26T05:25:54;0.00;1.00
22532;DHT22;11432;46.924;7.114;2023-02-26T05:28:21;0.00;1.00
22532;DHT22;11432;46.924;7.114;2023-02-26T05:30:46;0.00;1.00
22532;DHT22;11432;46.924;7.114;2023-02-26T05:33:12;0.00;1.00
22532;DHT22;11432;46.924;7.114;2023-02-26T05:35:38;-0.10;1.00
22532;DHT22;11432;46.924;7.114;2023-02-26T05:38:03;-0.10;1.00
22532;DHT22;11432;46.924;7.114;2023-02-26T05:40:29;-0.10;1.00
22532;DHT22;11432;46.924;7.114;2023-02-26T05:42:54;-0.10;1.00
22532;DHT22;11432;46.924;7.114;2023-02-26T05:45:20;-0.10;1.00
22532;DHT22;11432;46.924;7.114;2023-02-26T05:47:45;-0.10;1.00
22532;DHT22;11432;46.924;7.114;2023-02-26T05:50:11;-0.10;1.00
22532;DHT22;11432;46.924;7.114;2023-02-26T05:52:37;-0.10;1.00
22532;DHT22;11432;46.924;7.114;2023-02-26T05:55:03;-0.20;1.00
22532;DHT22;11432;46.924;7.114;2023-02-26T05:57:29;-0.20;1.00
22532;DHT22;11432;46.924;7.114;2023-02-26T05:59:54;-0.20;1.00
22532;DHT22;11432;46.924;7.114;2023-02-26T06:02:20;-0.20;1.00
22532;DHT22;11432;46.924;7.114;2023-02-26T06:04:46;-0.30;1.00
22532;DHT22;11432;46.924;7.114;2023-02-26T06:07:12;-0.30;1.00
22532;DHT22;11432;46.924;7.114;2023-02-26T06:09:37;-0.30;1.00
22532;DHT22;11432;46.924;7.114;2023-02-26T06:12:03;-0.40;1.00
22532;DHT22;11432;46.924;7.114;2023-02-26T06:14:29;-0.40;1.00
22532;DHT22;11432;46.924;7.114;2023-02-26T06:16:55;-0.40;1.00
22532;DHT22;11432;46.924;7.114;2023-02-26T06:19:20;-0.40;1.00
22532;DHT22;11432;46.924;7.114;2023-02-26T06:21:46;-0.40;1.00
22532;DHT22;11432;46.924;7.114;2023-02-26T06:24:12;-0.40;1.00
22532;DHT22;11432;46.924;7.114;2023-02-26T06:26:37;-0.50;1.00
22532;DHT22;11432;46.924;7.114;2023-02-26T06:29:03;-0.50;1.00
22532;DHT22;11432;46.924;7.114;2023-02-26T06:31:29;-0.50;1.00
22532;DHT22;11432;46.924;7.114;2023-02-26T06:33:54;-0.50;1.00
22532;DHT22;11432;46.924;7.114;2023-02-26T06:36:20;-0.50;1.00
22532;DHT22;11432;46.924;7.114;2023-02-26T06:38:45;-0.50;1.00
22532;DHT22;11432;46.924;7.114;2023-02-26T06:41:11;-0.60;1.00
22532;DHT22;11432;46.924;7.114;2023-02-26T06:43:38;-0.60;1.00
22532;DHT22;11432;46.924;7.114;2023-02-26T06:46:03;-0.60;1.00
22532;DHT22;11432;46.924;7.114;2023-02-26T06:48:29;-0.60;1.00
22532;DHT22;11432;46.924;7.114;2023-02-26T06:50:55;-0.60;1.00
22532;DHT22;11432;46.924;7.114;2023-02-26T06:53:21;-0.60;1.00
22532;DHT22;11432;46.924;7.114;2023-02-26T06:55:49;-0.60;1.00
22532;DHT22;11432;46.924;7.114;2023-02-26T06:58:15;-0.60;1.00
22532;DHT22;11432;46.924;7.114;2023-02-26T07:00:41;-0.60;1.00
22532;DHT22;11432;46.924;7.114;2023-02-26T07:03:10;-0.60;1.00
22532;DHT22;11432;46.924;7.114;2023-02-26T07:05:36;-0.60;1.00
22532;DHT22;11432;46.924;7.114;2023-02-26T07:08:02;-0.50;1.00
22532;DHT22;11432;46.924;7.114;2023-02-26T07:10:31;-0.50;1.00
22532;DHT22;11432;46.924;7.114;2023-02-26T07:12:57;-0.50;1.00
22532;DHT22;11432;46.924;7.114;2023-02-26T07:15:23;-0.50;1.00
22532;DHT22;11432;46.924;7.114;2023-02-26T07:17:49;-0.40;1.00
22532;DHT22;11432;46.924;7.114;2023-02-26T07:20:14;-0.40;1.00
22532;DHT22;11432;46.924;7.114;2023-02-26T07:22:40;-0.30;1.00
22532;DHT22;11432;46.924;7.114;2023-02-26T07:25:06;-0.20;1.00
22532;DHT22;11432;46.924;7.114;2023-02-26T07:27:33;-0.20;1.00
22532;DHT22;11432;46.924;7.114;2023-02-26T07:29:59;-0.10;1.00
22532;DHT22;11432;46.924;7.114;2023-02-26T07:32:25;-0.10;1.00
22532;DHT22;11432;46.924;7.114;2023-02-26T07:34:51;0.00;1.00
22532;DHT22;11432;46.924;7.114;2023-02-26T07:37:16;0.00;1.00
22532;DHT22;11432;46.924;7.114;2023-02-26T07:39:42;0.00;1.00
22532;DHT22;11432;46.924;7.114;2023-02-26T07:42:07;0.00;1.00
22532;DHT22;11432;46.924;7.114;2023-02-26T07:44:33;0.00;1.00
22532;DHT22;11432;46.924;7.114;2023-02-26T07:46:59;0.00;1.00
22532;DHT22;11432;46.924;7.114;2023-02-26T07:49:25;0.00;1.00
22532;DHT22;11432;46.924;7.114;2023-02-26T07:51:50;0.00;1.00
22532;DHT22;11432;46.924;7.114;2023-02-26T07:54:16;0.00;1.00
22532;DHT22;11432;46.924;7.114;2023-02-26T07:56:42;0.00;1.00
22532;DHT22;11432;46.924;7.114;2023-02-26T07:59:08;0.00;1.00
22532;DHT22;11432;46.924;7.114;2023-02-26T08:01:35;-0.10;1.00
22532;DHT22;11432;46.924;7.114;2023-02-26T08:04:01;-0.10;1.00
22532;DHT22;11432;46.924;7.114;2023-02-26T08:06:27;-0.10;1.00
22532;DHT22;11432;46.924;7.114;2023-02-26T08:08:53;-0.10;1.00
22532;DHT22;11432;46.924;7.114;2023-02-26T08:11:19;-0.10;1.00
22532;DHT22;11432;46.924;7.114;2023-02-26T08:13:44;0.00;1.00
22532;DHT22;11432;46.924;7.114;2023-02-26T08:16:10;-0.10;1.00
22532;DHT22;11432;46.924;7.114;2023-02-26T08:18:35;-0.10;1.00
22532;DHT22;11432;46.924;7.114;2023-02-26T08:21:01;-0.20;1.00
22532;DHT22;11432;46.924;7.114;2023-02-26T08:23:27;-0.10;1.00
22532;DHT22;11432;46.924;7.114;2023-02-26T08:26:01;-0.10;1.00
22532;DHT22;11432;46.924;7.114;2023-02-26T08:28:26;0.00;1.00
22532;DHT22;11432;46.924;7.114;2023-02-26T08:30:52;0.00;1.00
22532;DHT22;11432;46.924;7.114;2023-02-26T08:33:18;0.00;1.00
22532;DHT22;11432;46.924;7.114;2023-02-26T08:35:44;0.00;1.00
22532;DHT22;11432;46.924;7.114;2023-02-26T08:38:09;0.10;1.00
22532;DHT22;11432;46.924;7.114;2023-02-26T08:40:35;0.10;1.00
22532;DHT22;11432;46.924;7.114;2023-02-26T08:43:00;0.00;1.00
22532;DHT22;11432;46.924;7.114;2023-02-26T08:45:28;0.00;1.00
22532;DHT22;11432;46.924;7.114;2023-02-26T08:47:54;-0.10;1.00
22532;DHT22;11432;46.924;7.114;2023-02-26T08:50:21;-0.10;1.00
22532;DHT22;11432;46.924;7.114;2023-02-26T08:52:46;-0.10;1.00
22532;DHT22;11432;46.924;7.114;2023-02-26T08:55:12;0.00;1.00
22532;DHT22;11432;46.924;7.114;2023-02-26T08:57:38;0.10;1.00
22532;DHT22;11432;46.924;7.114;2023-02-26T09:00:05;0.10;1.00
22532;DHT22;11432;46.924;7.114;2023-02-26T09:02:37;0.10;1.00
22532;DHT22;11432;46.924;7.114;2023-02-26T09:05:04;0.10;1.00
22532;DHT22;11432;46.924;7.114;2023-02-26T09:07:30;0.00;1.00
22532;DHT22;11432;46.924;7.114;2023-02-26T09:09:55;0.10;1.00
22532;DHT22;11432;46.924;7.114;2023-02-26T09:12:21;0.10;1.00
22532;DHT22;11432;46.924;7.114;2023-02-26T09:14:47;0.30;1.00
22532;DHT22;11432;46.924;7.114;2023-02-26T09:17:13;0.40;1.00
22532;DHT22;11432;46.924;7.114;2023-02-26T09:19:38;0.30;1.00
22532;DHT22;11432;46.924;7.114;2023-02-26T09:22:04;0.40;1.00
22532;DHT22;11432;46.924;7.114;2023-02-26T09:24:30;0.50;1.00
22532;DHT22;11432;46.924;7.114;2023-02-26T09:26:55;0.60;1.00
22532;DHT22;11432;46.924;7.114;2023-02-26T09:29:21;0.80;1.00
22532;DHT22;11432;46.924;7.114;2023-02-26T09:31:46;0.90;1.00
22532;DHT22;11432;46.924;7.114;2023-02-26T09:34:12;0.90;1.00
22532;DHT22;11432;46.924;7.114;2023-02-26T09:36:38;1.00;1.00
22532;DHT22;11432;46.924;7.114;2023-02-26T09:39:04;1.10;1.00
22532;DHT22;11432;46.924;7.114;2023-02-26T09:41:33;1.10;1.00
22532;DHT22;11432;46.924;7.114;2023-02-26T09:44:31;1.20;1.00
22532;DHT22;11432;46.924;7.114;2023-02-26T09:47:03;1.30;1.00
22532;DHT22;11432;46.924;7.114;2023-02-26T09:55:09;1.20;1.00
22532;DHT22;11432;46.924;7.114;2023-02-26T09:57:42;1.00;1.00
22532;DHT22;11432;46.924;7.114;2023-02-26T10:05:22;0.90;1.00
22532;DHT22;11432;46.924;7.114;2023-02-26T10:08:00;0.80;1.00
22532;DHT22;11432;46.924;7.114;2023-02-26T10:10:48;0.90;1.00
22532;DHT22;11432;46.924;7.114;2023-02-26T10:13:41;1.10;1.00
22532;DHT22;11432;46.924;7.114;2023-02-26T10:16:14;1.10;1.00
22532;DHT22;11432;46.924;7.114;2023-02-26T10:18:47;1.10;1.00
22532;DHT22;11432;46.924;7.114;2023-02-26T10:21:19;1.00;1.00
22532;DHT22;11432;46.924;7.114;2023-02-26T10:23:56;1.00;1.00
22532;DHT22;11432;46.924;7.114;2023-02-26T10:26:25;1.00;1.00
22532;DHT22;11432;46.924;7.114;2023-02-26T10:35:03;0.90;1.00
22532;DHT22;11432;46.924;7.114;2023-02-26T10:43:48;0.80;4.10
22532;DHT22;11432;46.924;7.114;2023-02-26T10:50:59;0.80;10.90
22532;DHT22;11432;46.924;7.114;2023-02-26T10:53:27;0.70;11.70
22532;DHT22;11432;46.924;7.114;2023-02-26T10:56:41;0.70;10.70
22532;DHT22;11432;46.924;7.114;2023-02-26T10:59:06;0.70;11.70
22532;DHT22;11432;46.924;7.114;2023-02-26T11:01:32;0.70;13.10
22532;DHT22;11432;46.924;7.114;2023-02-26T11:04:14;0.70;8.80
22532;DHT22;11432;46.924;7.114;2023-02-26T11:07:00;1.00;19.30
22532;DHT22;11432;46.924;7.114;2023-02-26T11:09:38;1.10;9.70
22532;DHT22;11432;46.924;7.114;2023-02-26T11:14:37;2.30;17.00
22532;DHT22;11432;46.924;7.114;2023-02-26T11:17:09;3.80;46.20
22532;DHT22;11432;46.924;7.114;2023-02-26T11:19:39;3.40;1.00
22532;DHT22;11432;46.924;7.114;2023-02-26T11:22:05;3.20;1.00
22532;DHT22;11432;46.924;7.114;2023-02-26T11:24:39;3.50;4.40
22532;DHT22;11432;46.924;7.114;2023-02-26T11:27:11;3.90;2.10
22532;DHT22;11432;46.924;7.114;2023-02-26T11:29:40;4.40;4.50
22532;DHT22;11432;46.924;7.114;2023-02-26T11:32:17;5.10;13.50
22532;DHT22;11432;46.924;7.114;2023-02-26T11:34:48;5.50;12.30
22532;DHT22;11432;46.924;7.114;2023-02-26T11:37:27;5.30;11.80
22532;DHT22;11432;46.924;7.114;2023-02-26T11:42:43;5.60;10.00
22532;DHT22;11432;46.924;7.114;2023-02-26T11:45:13;5.80;13.40
22532;DHT22;11432;46.924;7.114;2023-02-26T11:47:41;6.40;11.80
22532;DHT22;11432;46.924;7.114;2023-02-26T11:50:23;6.40;11.30
22532;DHT22;11432;46.924;7.114;2023-02-26T11:53:04;5.00;8.10
22532;DHT22;11432;46.924;7.114;2023-02-26T11:55:35;4.20;3.60
22532;DHT22;11432;46.924;7.114;2023-02-26T11:58:01;3.50;5.70
22532;DHT22;11432;46.924;7.114;2023-02-26T12:00:35;2.70;4.80
22532;DHT22;11432;46.924;7.114;2023-02-26T12:03:02;2.70;3.50
22532;DHT22;11432;46.924;7.114;2023-02-26T12:05:30;2.30;6.10
22532;DHT22;11432;46.924;7.114;2023-02-26T12:07:56;2.30;5.30
22532;DHT22;11432;46.924;7.114;2023-02-26T12:10:32;2.10;6.10
22532;DHT22;11432;46.924;7.114;2023-02-26T12:18:27;2.30;1.00
22532;DHT22;11432;46.924;7.114;2023-02-26T12:37:36;3.00;3.80
22532;DHT22;11432;46.924;7.114;2023-02-26T12:43:05;5.00;1.00
22532;DHT22;11432;46.924;7.114;2023-02-26T12:45:36;5.20;1.00
22532;DHT22;11432;46.924;7.114;2023-02-26T12:48:32;5.50;1.00
22532;DHT22;11432;46.924;7.114;2023-02-26T12:56:59;4.30;1.00
22532;DHT22;11432;46.924;7.114;2023-02-26T13:07:49;4.80;1.00
22532;DHT22;11432;46.924;7.114;2023-02-26T13:13:03;5.80;1.00
22532;DHT22;11432;46.924;7.114;2023-02-26T13:15:59;5.60;1.00
22532;DHT22;11432;46.924;7.114;2023-02-26T13:18:45;4.70;1.00
22532;DHT22;11432;46.924;7.114;2023-02-26T13:21:44;5.00;1.00
22532;DHT22;11432;46.924;7.114;2023-02-26T13:24:16;4.50;1.00
22532;DHT22;11432;46.924;7.114;2023-02-26T13:26:43;3.80;1.00
22532;DHT22;11432;46.924;7.114;2023-02-26T13:29:18;5.20;1.00
22532;DHT22;11432;46.924;7.114;2023-02-26T13:32:12;4.60;1.00
22532;DHT22;11432;46.924;7.114;2023-02-26T13:34:59;3.60;1.00
22532;DHT22;11432;46.924;7.114;2023-02-26T13:37:31;5.40;1.00
22532;DHT22;11432;46.924;7.114;2023-02-26T13:45:47;3.20;4.40
22532;DHT22;11432;46.924;7.114;2023-02-26T13:51:35;2.40;3.60
22532;DHT22;11432;46.924;7.114;2023-02-26T14:01:49;4.80;8.20
22532;DHT22;11432;46.924;7.114;2023-02-26T14:06:45;5.80;5.50
22532;DHT22;11432;46.924;7.114;2023-02-26T14:12:01;5.80;1.00
22532;DHT22;11432;46.924;7.114;2023-02-26T14:14:36;5.70;1.80
22532;DHT22;11432;46.924;7.114;2023-02-26T14:19:34;6.00;1.00
22532;DHT22;11432;46.924;7.114;2023-02-26T14:22:19;5.80;1.00
22532;DHT22;11432;46.924;7.114;2023-02-26T14:25:18;4.30;1.00
22532;DHT22;11432;46.924;7.114;2023-02-26T14:27:46;4.00;1.00
22532;DHT22;11432;46.924;7.114;2023-02-26T14:41:12;3.00;1.00
22532;DHT22;11432;46.924;7.114;2023-02-26T14:43:48;3.00;10.50
22532;DHT22;11432;46.924;7.114;2023-02-26T14:46:16;2.50;8.60
22532;DHT22;11432;46.924;7.114;2023-02-26T14:48:42;2.40;4.80
22532;DHT22;11432;46.924;7.114;2023-02-26T14:51:44;2.30;1.00
22532;DHT22;11432;46.924;7.114;2023-02-26T14:57:17;2.30;1.00
22532;DHT22;11432;46.924;7.114;2023-02-26T15:10:51;2.00;1.00
22532;DHT22;11432;46.924;7.114;2023-02-26T15:24:44;1.80;1.00
22532;DHT22;11432;46.924;7.114;2023-02-26T15:27:14;1.80;1.00
22532;DHT22;11432;46.924;7.114;2023-02-26T15:29:41;1.90;1.00
22532;DHT22;11432;46.924;7.114;2023-02-26T15:34:48;1.90;1.00
22532;DHT22;11432;46.924;7.114;2023-02-26T15:37:21;1.90;1.00
22532;DHT22;11432;46.924;7.114;2023-02-26T15:39:49;2.00;1.00
22532;DHT22;11432;46.924;7.114;2023-02-26T15:42:15;1.90;1.00
22532;DHT22;11432;46.924;7.114;2023-02-26T15:44:43;1.80;1.00
22532;DHT22;11432;46.924;7.114;2023-02-26T15:47:10;1.70;1.00
22532;DHT22;11432;46.924;7.114;2023-02-26T15:49:39;1.70;1.00
22532;DHT22;11432;46.924;7.114;2023-02-26T15:52:07;1.50;1.00
22532;DHT22;11432;46.924;7.114;2023-02-26T15:54:44;1.50;1.00
22532;DHT22;11432;46.924;7.114;2023-02-26T15:57:12;1.50;1.00
22532;DHT22;11432;46.924;7.114;2023-02-26T16:00:06;1.40;1.00
22532;DHT22;11432;46.924;7.114;2023-02-26T16:02:32;1.10;1.00
22532;DHT22;11432;46.924;7.114;2023-02-26T16:05:00;0.90;1.00
22532;DHT22;11432;46.924;7.114;2023-02-26T16:07:26;0.80;1.00
22532;DHT22;11432;46.924;7.114;2023-02-26T16:09:53;0.70;1.00
22532;DHT22;11432;46.924;7.114;2023-02-26T16:12:22;0.80;1.00
22532;DHT22;11432;46.924;7.114;2023-02-26T16:14:58;0.80;1.00
22532;DHT22;11432;46.924;7.114;2023-02-26T16:17:30;0.90;1.00
22532;DHT22;11432;46.924;7.114;2023-02-26T16:19:59;1.00;1.00
22532;DHT22;11432;46.924;7.114;2023-02-26T16:22:39;1.00;1.00
22532;DHT22;11432;46.924;7.114;2023-02-26T16:27:57;0.90;1.00
22532;DHT22;11432;46.924;7.114;2023-02-26T16:30:34;0.80;1.00
22532;DHT22;11432;46.924;7.114;2023-02-26T16:33:01;0.80;1.00
22532;DHT22;11432;46.924;7.114;2023-02-26T16:35:32;0.90;1.00
22532;DHT22;11432;46.924;7.114;2023-02-26T16:38:04;0.80;1.00
22532;DHT22;11432;46.924;7.114;2023-02-26T16:40:35;0.90;1.00
22532;DHT22;11432;46.924;7.114;2023-02-26T16:45:50;0.90;1.00
22532;DHT22;11432;46.924;7.114;2023-02-26T16:48:27;0.90;1.00
22532;DHT22;11432;46.924;7.114;2023-02-26T16:51:10;0.90;1.00
22532;DHT22;11432;46.924;7.114;2023-02-26T16:53:42;0.90;1.00
22532;DHT22;11432;46.924;7.114;2023-02-26T16:56:16;0.80;1.00
22532;DHT22;11432;46.924;7.114;2023-02-26T16:59:02;0.80;1.00
22532;DHT22;11432;46.924;7.114;2023-02-26T17:01:34;0.80;1.00
22532;DHT22;11432;46.924;7.114;2023-02-26T17:04:01;0.70;1.00
22532;DHT22;11432;46.924;7.114;2023-02-26T17:06:28;0.70;1.00
22532;DHT22;11432;46.924;7.114;2023-02-26T17:09:01;0.70;1.00
22532;DHT22;11432;46.924;7.114;2023-02-26T17:11:33;0.70;1.00
22532;DHT22;11432;46.924;7.114;2023-02-26T17:16:38;0.70;1.00
22532;DHT22;11432;46.924;7.114;2023-02-26T17:19:03;0.70;1.00
22532;DHT22;11432;46.924;7.114;2023-02-26T17:21:30;0.80;1.00
22532;DHT22;11432;46.924;7.114;2023-02-26T17:23:56;0.80;1.00
22532;DHT22;11432;46.924;7.114;2023-02-26T17:26:22;0.80;1.00
22532;DHT22;11432;46.924;7.114;2023-02-26T17:28:48;0.80;1.00
22532;DHT22;11432;46.924;7.114;2023-02-26T17:31:14;0.90;1.00
22532;DHT22;11432;46.924;7.114;2023-02-26T17:33:41;0.90;1.00
22532;DHT22;11432;46.924;7.114;2023-02-26T17:36:14;1.10;1.00
22532;DHT22;11432;46.924;7.114;2023-02-26T17:38:40;1.00;1.00
22532;DHT22;11432;46.924;7.114;2023-02-26T17:41:17;0.90;1.00
22532;DHT22;11432;46.924;7.114;2023-02-26T17:43:43;0.90;1.00
22532;DHT22;11432;46.924;7.114;2023-02-26T17:46:10;0.90;1.00
22532;DHT22;11432;46.924;7.114;2023-02-26T17:48:36;0.90;1.00
22532;DHT22;11432;46.924;7.114;2023-02-26T17:51:02;0.90;1.00
22532;DHT22;11432;46.924;7.114;2023-02-26T17:53:28;0.90;1.00
22532;DHT22;11432;46.924;7.114;2023-02-26T17:55:58;0.80;1.00
22532;DHT22;11432;46.924;7.114;2023-02-26T17:58:32;0.80;1.00
22532;DHT22;11432;46.924;7.114;2023-02-26T18:00:59;0.80;1.00
22532;DHT22;11432;46.924;7.114;2023-02-26T18:03:26;0.70;1.00
22532;DHT22;11432;46.924;7.114;2023-02-26T18:05:53;0.80;1.00
22532;DHT22;11432;46.924;7.114;2023-02-26T18:08:23;0.70;1.00
22532;DHT22;11432;46.924;7.114;2023-02-26T18:10:49;0.70;1.00
22532;DHT22;11432;46.924;7.114;2023-02-26T18:13:15;0.60;1.00
22532;DHT22;11432;46.924;7.114;2023-02-26T18:15:41;0.60;1.00
22532;DHT22;11432;46.924;7.114;2023-02-26T18:18:11;0.50;1.00
22532;DHT22;11432;46.924;7.114;2023-02-26T18:20:37;0.50;1.00
22532;DHT22;11432;46.924;7.114;2023-02-26T18:23:03;0.50;1.00
22532;DHT22;11432;46.924;7.114;2023-02-26T18:25:31;0.50;1.00
22532;DHT22;11432;46.924;7.114;2023-02-26T18:27:58;0.50;1.00
22532;DHT22;11432;46.924;7.114;2023-02-26T18:30:32;0.50;1.00
22532;DHT22;11432;46.924;7.114;2023-02-26T18:32:58;0.60;1.00
22532;DHT22;11432;46.924;7.114;2023-02-26T18:35:25;0.60;1.00
22532;DHT22;11432;46.924;7.114;2023-02-26T18:37:52;0.60;1.00
22532;DHT22;11432;46.924;7.114;2023-02-26T18:40:21;0.60;1.00
22532;DHT22;11432;46.924;7.114;2023-02-26T18:42:47;0.60;1.00
22532;DHT22;11432;46.924;7.114;2023-02-26T18:45:13;0.60;1.00
22532;DHT22;11432;46.924;7.114;2023-02-26T18:47:39;0.60;1.00
22532;DHT22;11432;46.924;7.114;2023-02-26T18:50:07;0.60;1.00
22532;DHT22;11432;46.924;7.114;2023-02-26T18:52:33;0.60;1.00
22532;DHT22;11432;46.924;7.114;2023-02-26T18:55:00;0.60;1.00
22532;DHT22;11432;46.924;7.114;2023-02-26T18:57:28;0.60;1.00
22532;DHT22;11432;46.924;7.114;2023-02-26T18:59:53;0.60;1.00
22532;DHT22;11432;46.924;7.114;2023-02-26T19:02:19;0.60;1.00
22532;DHT22;11432;46.924;7.114;2023-02-26T19:04:45;0.60;1.00
22532;DHT22;11432;46.924;7.114;2023-02-26T19:07:10;0.50;1.00
22532;DHT22;11432;46.924;7.114;2023-02-26T19:09:36;0.60;1.00
22532;DHT22;11432;46.924;7.114;2023-02-26T19:12:02;0.50;1.00
22532;DHT22;11432;46.924;7.114;2023-02-26T19:14:30;0.50;1.00
22532;DHT22;11432;46.924;7.114;2023-02-26T19:16:56;0.50;1.00
22532;DHT22;11432;46.924;7.114;2023-02-26T19:19:21;0.50;1.00
22532;DHT22;11432;46.924;7.114;2023-02-26T19:21:47;0.50;1.00
22532;DHT22;11432;46.924;7.114;2023-02-26T19:24:13;0.50;1.00
22532;DHT22;11432;46.924;7.114;2023-02-26T19:26:39;0.50;1.00
22532;DHT22;11432;46.924;7.114;2023-02-26T19:29:08;0.50;1.00
22532;DHT22;11432;46.924;7.114;2023-02-26T19:31:34;0.50;1.00
22532;DHT22;11432;46.924;7.114;2023-02-26T19:34:01;0.50;1.00
22532;DHT22;11432;46.924;7.114;2023-02-26T19:36:27;0.40;1.00
22532;DHT22;11432;46.924;7.114;2023-02-26T19:39:01;0.40;1.00